createdAt,value
2022-10-13T00:01:41.536Z,27.73
2022-10-13T00:04:11.091Z,21.48
2022-10-13T00:06:41.251Z,21.20
2022-10-13T00:09:10.764Z,25.40
2022-10-13T00:11:42.933Z,24.20
2022-10-13T00:14:12.699Z,28.77
2022-10-13T00:16:42.508Z,23.42
2022-10-13T00:19:15.053Z,25.23
2022-10-13T00:21:44.850Z,21.63
2022-10-13T00:24:14.694Z,24.48
2022-10-13T00:26:46.899Z,31.83
2022-10-13T00:29:21.852Z,27.55
2022-10-13T00:31:52.037Z,20.73
2022-10-13T00:34:21.637Z,20.75
2022-10-13T00:36:51.212Z,23.75
2022-10-13T00:39:20.997Z,23.73
2022-10-13T00:41:54.490Z,24.45
2022-10-13T00:44:54.146Z,28.50
2022-10-13T00:47:24.018Z,22.10
2022-10-13T00:49:54.054Z,27.77
2022-10-13T00:52:24.393Z,26.50
2022-10-13T00:54:54.045Z,29.27
2022-10-13T00:57:26.418Z,25.02
2022-10-13T00:59:56.028Z,31.73
2022-10-13T01:02:26.682Z,21.70
2022-10-13T01:04:57.340Z,23.80
2022-10-13T01:07:27.022Z,22.90
2022-10-13T01:09:56.714Z,25.60
2022-10-13T01:12:40.105Z,26.92
2022-10-13T01:15:13.297Z,25.70
2022-10-13T01:17:50.771Z,23.35
2022-10-13T01:20:47.897Z,23.10
2022-10-13T01:23:40.861Z,26.95
2022-10-13T01:26:26.627Z,23.88
2022-10-13T01:29:15.582Z,23.02
2022-10-13T01:31:50.550Z,28.45
2022-10-13T01:34:24.891Z,34.67
2022-10-13T01:36:59.463Z,28.58
2022-10-13T01:39:38.214Z,28.13
2022-10-13T01:42:13.268Z,25.20
2022-10-13T01:44:46.244Z,30.83
2022-10-13T01:47:18.668Z,31.40
2022-10-13T01:49:49.064Z,26.90
2022-10-13T01:52:21.154Z,27.77
2022-10-13T01:54:53.281Z,30.02
2022-10-13T01:57:34.533Z,27.90
2022-10-13T02:00:07.602Z,24.02
2022-10-13T02:02:56.908Z,27.17
2022-10-13T02:05:34.939Z,28.63
2022-10-13T02:08:07.524Z,29.98
2022-10-13T02:10:43.061Z,26.50
2022-10-13T02:13:14.502Z,29.50
2022-10-13T02:15:47.773Z,24.85
2022-10-13T02:18:22.346Z,23.90
2022-10-13T02:20:52.144Z,23.92
2022-10-13T02:23:22.094Z,24.70
2022-10-13T02:25:52.717Z,23.48
2022-10-13T02:28:22.919Z,23.02
2022-10-13T02:30:52.722Z,24.10
2022-10-13T02:33:24.971Z,21.95
2022-10-13T02:35:54.596Z,21.77
2022-10-13T02:38:24.141Z,22.40
2022-10-13T02:40:54.898Z,23.40
2022-10-13T02:43:25.142Z,26.73
2022-10-13T02:45:54.710Z,23.13
2022-10-13T02:48:26.832Z,23.73
2022-10-13T02:50:56.485Z,29.40
2022-10-13T02:53:26.132Z,21.13
2022-10-13T02:55:56.486Z,24.23
2022-10-13T02:58:28.171Z,20.75
2022-10-13T03:00:57.934Z,23.75
2022-10-13T03:03:30.724Z,22.75
2022-10-13T03:06:00.924Z,20.90
2022-10-13T03:08:31.851Z,22.63
2022-10-13T03:11:01.591Z,23.13
2022-10-13T03:13:31.204Z,22.73
2022-10-13T03:16:09.739Z,21.15
2022-10-13T03:18:41.956Z,23.70
2022-10-13T03:21:13.140Z,22.70
2022-10-13T03:23:42.974Z,22.05
2022-10-13T03:26:12.727Z,19.67
2022-10-13T03:28:42.370Z,24.40
2022-10-13T03:31:13.796Z,23.85
2022-10-13T03:33:46.417Z,21.88
2022-10-13T03:36:16.129Z,23.92
2022-10-13T03:38:48.518Z,22.38
2022-10-13T03:41:19.719Z,25.85
2022-10-13T03:43:52.603Z,26.70
2022-10-13T03:46:22.293Z,23.63
2022-10-13T03:48:54.520Z,23.02
2022-10-13T03:51:24.996Z,25.38
2022-10-13T03:53:55.290Z,20.13
2022-10-13T03:56:26.673Z,21.50
2022-10-13T03:58:56.746Z,19.55
2022-10-13T04:01:28.239Z,20.58
2022-10-13T04:04:02.273Z,19.65
2022-10-13T04:06:32.520Z,20.02
2022-10-13T04:09:02.224Z,23.50
2022-10-13T04:11:32.091Z,22.88
2022-10-13T04:14:02.498Z,24.40
2022-10-13T04:16:33.449Z,20.13
2022-10-13T04:19:08.453Z,20.10
2022-10-13T04:21:38.297Z,23.23
2022-10-13T04:24:09.136Z,25.70
2022-10-13T04:26:39.161Z,23.42
2022-10-13T04:29:13.165Z,21.48
2022-10-13T04:31:44.511Z,23.92
2022-10-13T04:34:16.660Z,18.65
2022-10-13T04:36:46.353Z,23.40
2022-10-13T04:39:15.932Z,23.10
2022-10-13T04:41:45.670Z,21.75
2022-10-13T04:44:15.422Z,21.75
2022-10-13T04:46:45.020Z,17.83
2022-10-13T04:49:17.450Z,19.85
2022-10-13T04:51:47.065Z,24.65
2022-10-13T04:54:16.591Z,20.42
2022-10-13T04:56:47.344Z,22.23
2022-10-13T04:59:16.931Z,18.77
2022-10-13T05:01:46.531Z,21.80
2022-10-13T05:04:18.702Z,20.55
2022-10-13T05:07:15.946Z,22.58
2022-10-13T05:09:38.125Z,20.73
2022-10-13T05:12:13.350Z,20.63
2022-10-13T05:14:42.995Z,23.95
2022-10-13T05:17:12.788Z,20.80
2022-10-13T05:19:44.968Z,26.08
2022-10-13T05:22:14.665Z,20.92
2022-10-13T05:24:44.698Z,20.95
2022-10-13T05:27:15.600Z,21.65
2022-10-13T05:29:45.439Z,21.63
2022-10-13T05:32:15.019Z,18.45
2022-10-13T05:34:47.239Z,19.58
2022-10-13T05:37:17.147Z,20.02
2022-10-13T05:39:48.862Z,19.40
2022-10-13T05:42:19.039Z,21.90
2022-10-13T05:44:49.106Z,20.23
2022-10-13T05:47:18.912Z,17.85
2022-10-13T05:49:51.053Z,22.58
2022-10-13T05:52:21.082Z,20.50
2022-10-13T05:54:56.640Z,23.10
2022-10-13T05:57:28.950Z,22.08
2022-10-13T06:00:01.457Z,17.42
2022-10-13T06:02:35.022Z,20.95
2022-10-13T06:05:09.015Z,16.42
2022-10-13T06:07:38.581Z,19.08
2022-10-13T06:10:09.457Z,21.83
2022-10-13T06:12:39.169Z,22.88
2022-10-13T06:15:10.033Z,23.13
2022-10-13T06:17:40.704Z,19.58
2022-10-13T06:20:13.959Z,22.38
2022-10-13T06:22:43.515Z,18.77
2022-10-13T06:25:14.330Z,17.80
2022-10-13T06:27:43.917Z,15.98
2022-10-13T06:30:14.234Z,22.10
2022-10-13T06:32:43.863Z,21.02
2022-10-13T06:35:16.150Z,21.30
2022-10-13T06:37:48.619Z,23.88
2022-10-13T06:40:18.559Z,19.88
2022-10-13T06:42:52.564Z,21.30
2022-10-13T06:45:27.814Z,19.92
2022-10-13T06:47:57.774Z,23.65
2022-10-13T06:50:32.220Z,18.77
2022-10-13T06:53:01.846Z,21.42
2022-10-13T06:55:32.931Z,19.05
2022-10-13T06:58:02.911Z,19.85
2022-10-13T07:00:32.839Z,20.52
2022-10-13T07:03:02.472Z,24.70
2022-10-13T07:05:34.899Z,16.92
2022-10-13T07:08:04.562Z,18.88
2022-10-13T07:10:34.135Z,18.15
2022-10-13T07:13:03.749Z,20.88
2022-10-13T07:15:34.061Z,17.10
2022-10-13T07:18:03.644Z,20.80
2022-10-13T07:20:36.215Z,21.02
2022-10-13T07:23:05.924Z,18.83
2022-10-13T07:25:35.551Z,23.40
2022-10-13T07:28:06.029Z,23.02
2022-10-13T07:30:37.051Z,15.50
2022-10-13T07:33:06.819Z,23.35
2022-10-13T07:35:41.303Z,15.73
2022-10-13T07:38:11.817Z,21.02
2022-10-13T07:40:44.063Z,15.53
2022-10-13T07:43:13.680Z,17.27
2022-10-13T07:45:43.280Z,19.52
2022-10-13T07:48:12.890Z,16.90
2022-10-13T07:50:45.101Z,15.30
2022-10-13T07:53:15.121Z,19.23
2022-10-13T07:55:44.769Z,17.90
2022-10-13T07:58:15.069Z,20.42
2022-10-13T08:00:44.921Z,15.40
2022-10-13T08:03:14.432Z,17.40
2022-10-13T08:05:46.597Z,21.65
2022-10-13T08:08:16.147Z,14.10
2022-10-13T08:10:45.785Z,15.00
2022-10-13T08:13:15.681Z,14.30
2022-10-13T08:15:46.692Z,20.23
2022-10-13T08:18:17.393Z,16.33
2022-10-13T08:20:49.626Z,15.70
2022-10-13T08:23:20.727Z,16.05
2022-10-13T08:25:53.132Z,18.13
2022-10-13T08:28:25.919Z,17.88
2022-10-13T08:30:57.787Z,13.15
2022-10-13T08:33:27.974Z,14.95
2022-10-13T08:36:00.283Z,16.60
2022-10-13T08:38:29.845Z,13.10
2022-10-13T08:40:59.417Z,10.88
2022-10-13T08:43:29.206Z,15.75
2022-10-13T08:46:02.559Z,18.30
2022-10-13T08:48:36.274Z,14.45
2022-10-13T08:51:09.632Z,14.30
2022-10-13T08:53:41.966Z,16.83
2022-10-13T08:56:16.729Z,15.00
2022-10-13T08:58:50.606Z,14.48
2022-10-13T09:01:23.744Z,14.07
2022-10-13T09:03:55.927Z,14.63
2022-10-13T09:06:31.792Z,18.15
2022-10-13T09:09:02.938Z,12.52
2022-10-13T09:11:34.617Z,13.52
2022-10-13T09:14:06.349Z,15.60
2022-10-13T09:16:38.452Z,18.77
2022-10-13T09:19:17.126Z,19.33
2022-10-13T09:21:49.342Z,15.18
2022-10-13T09:24:20.433Z,18.48
2022-10-13T09:26:52.672Z,18.02
2022-10-13T09:29:28.911Z,12.40
2022-10-13T09:32:12.719Z,15.10
2022-10-13T09:34:42.290Z,12.35
2022-10-13T09:37:23.434Z,10.45
2022-10-13T09:40:04.502Z,12.68
2022-10-13T09:42:35.012Z,14.63
2022-10-13T09:45:16.572Z,12.32
2022-10-13T09:47:52.470Z,13.02
2022-10-13T09:50:23.829Z,14.13
2022-10-13T09:52:56.423Z,14.73
2022-10-13T09:55:34.823Z,12.52
2022-10-13T09:58:08.657Z,10.82
2022-10-13T10:00:39.646Z,13.73
2022-10-13T10:03:13.483Z,12.65
2022-10-13T10:05:49.773Z,15.43
2022-10-13T10:08:33.386Z,12.63
2022-10-13T10:11:13.377Z,11.57
2022-10-13T10:13:43.252Z,12.48
2022-10-13T10:16:15.892Z,20.65
2022-10-13T10:18:51.914Z,13.48
2022-10-13T10:21:31.711Z,10.77
2022-10-13T10:24:09.351Z,9.45
2022-10-13T10:26:49.103Z,11.77
2022-10-13T10:29:25.238Z,14.10
2022-10-13T10:32:19.418Z,13.52
2022-10-13T10:34:53.960Z,11.90
2022-10-13T10:37:38.340Z,13.35
2022-10-13T10:40:17.163Z,9.88
2022-10-13T10:43:02.006Z,13.45
2022-10-13T10:45:34.535Z,12.10
2022-10-13T10:48:07.312Z,14.15
2022-10-13T10:50:37.519Z,12.93
2022-10-13T10:53:09.917Z,12.35
2022-10-13T10:55:48.659Z,13.30
2022-10-13T10:58:27.275Z,11.27
2022-10-13T11:01:01.987Z,13.25
2022-10-13T11:03:42.460Z,18.27
2022-10-13T11:06:27.643Z,14.50
2022-10-13T11:08:58.244Z,16.45
2022-10-13T11:11:51.140Z,13.65
2022-10-13T11:14:31.971Z,13.48
2022-10-13T11:17:20.753Z,11.88
2022-10-13T11:19:51.596Z,11.75
2022-10-13T11:22:23.956Z,14.40
2022-10-13T11:25:05.506Z,11.63
2022-10-13T11:27:49.655Z,16.88
2022-10-13T11:33:09.338Z,14.52
2022-10-13T11:35:39.084Z,12.43
2022-10-13T11:38:26.895Z,13.25
2022-10-13T11:41:11.623Z,16.17
2022-10-13T11:43:51.769Z,14.20
2022-10-13T11:46:37.348Z,14.75
2022-10-13T11:49:42.701Z,16.98
2022-10-13T11:52:23.302Z,20.70
2022-10-13T11:54:58.296Z,16.88
2022-10-13T12:00:00.397Z,12.60
2022-10-13T12:02:32.272Z,19.35
2022-10-13T12:05:03.843Z,15.73
2022-10-13T12:07:38.516Z,13.57
2022-10-13T12:10:10.962Z,22.45
2022-10-13T12:12:41.166Z,17.15
2022-10-13T12:15:37.960Z,14.30
2022-10-13T12:18:23.555Z,18.83
2022-10-13T12:20:57.193Z,13.00
2022-10-13T12:23:27.609Z,19.63
2022-10-13T12:26:00.061Z,19.15
2022-10-13T12:28:31.993Z,14.20
2022-10-13T12:31:10.132Z,14.88
2022-10-13T12:33:43.309Z,17.08
2022-10-13T12:36:16.341Z,17.85
2022-10-13T12:38:50.164Z,19.92
2022-10-13T12:43:52.561Z,16.50
2022-10-13T12:46:43.528Z,21.20
2022-10-13T12:49:18.171Z,21.00
2022-10-13T12:51:50.862Z,18.95
2022-10-13T13:44:42.134Z,15.30
2022-10-13T13:47:20.391Z,19.55
2022-10-13T13:49:51.319Z,18.85
2022-10-13T13:52:21.883Z,20.48
2022-10-13T13:54:52.113Z,18.70
2022-10-13T13:57:22.615Z,17.88
2022-10-13T13:59:54.891Z,15.48
2022-10-13T14:02:24.575Z,21.40
2022-10-13T14:04:54.212Z,20.83
2022-10-13T14:07:24.710Z,14.48
2022-10-13T14:09:59.255Z,14.20
2022-10-13T14:12:32.020Z,14.73
2022-10-13T14:15:04.065Z,16.75
2022-10-13T14:17:34.449Z,17.50
2022-10-13T14:20:03.900Z,15.93
2022-10-13T14:22:40.515Z,18.48
2022-10-13T14:25:10.821Z,17.48
2022-10-13T14:27:40.309Z,15.77
2022-10-13T14:30:15.265Z,15.95
2022-10-13T14:32:44.957Z,19.45
2022-10-13T14:35:14.421Z,20.20
2022-10-13T14:37:43.854Z,18.25
2022-10-13T14:40:14.222Z,18.23
2022-10-13T14:42:43.800Z,18.30
2022-10-13T14:45:20.558Z,18.63
2022-10-13T14:47:49.979Z,17.95
2022-10-13T14:50:19.562Z,20.05
2022-10-13T14:52:54.657Z,18.83
2022-10-13T14:55:25.677Z,22.70
2022-10-13T14:57:55.121Z,22.40
2022-10-13T15:00:27.116Z,24.33
2022-10-13T15:02:56.595Z,19.77
2022-10-13T15:05:28.222Z,22.98
2022-10-13T15:07:57.685Z,34.10
2022-10-13T15:10:27.167Z,22.20
2022-10-13T15:12:57.069Z,24.77
2022-10-13T15:15:29.218Z,20.35
2022-10-13T15:17:58.783Z,22.40
2022-10-13T15:20:29.206Z,23.85
2022-10-13T15:22:58.753Z,19.65
2022-10-13T15:25:28.293Z,17.25
2022-10-13T15:27:57.879Z,20.50
2022-10-13T15:30:29.995Z,20.67
2022-10-13T15:32:59.569Z,25.30
2022-10-13T15:35:32.594Z,20.92
2022-10-13T15:38:02.142Z,22.90
2022-10-13T15:40:33.614Z,27.08
2022-10-13T15:43:03.376Z,19.55
2022-10-13T15:45:35.832Z,24.80
2022-10-13T15:48:05.769Z,22.17
2022-10-13T15:50:35.469Z,22.45
2022-10-13T15:53:05.071Z,27.02
2022-10-13T15:55:35.612Z,20.05
2022-10-13T15:58:07.799Z,21.67
2022-10-13T16:00:42.602Z,20.77
2022-10-13T16:03:16.501Z,22.88
2022-10-13T16:05:46.457Z,19.58
2022-10-13T16:08:16.892Z,22.75
2022-10-13T16:10:46.483Z,23.40
2022-10-13T16:13:17.611Z,23.25
2022-10-13T16:15:59.581Z,22.65
2022-10-13T16:18:31.840Z,19.48
2022-10-13T16:21:01.422Z,22.33
2022-10-13T16:23:30.975Z,21.58
2022-10-13T16:26:00.521Z,19.65
2022-10-13T16:28:31.198Z,27.77
2022-10-13T16:31:05.704Z,19.45
2022-10-13T16:33:37.489Z,19.10
2022-10-13T16:36:07.994Z,20.77
2022-10-13T16:38:37.780Z,19.52
2022-10-13T16:41:08.175Z,20.92
2022-10-13T16:43:37.884Z,18.55
2022-10-13T16:46:10.171Z,20.75
2022-10-13T16:48:39.702Z,17.92
2022-10-13T16:51:11.021Z,23.00
2022-10-13T16:53:41.231Z,21.35
2022-10-13T16:56:11.192Z,18.15
2022-10-13T16:58:44.917Z,22.75
2022-10-13T17:01:17.200Z,17.17
2022-10-13T17:03:47.915Z,19.65
2022-10-13T17:06:18.007Z,20.05
2022-10-13T17:08:47.520Z,22.58
2022-10-13T17:11:19.736Z,23.13
2022-10-13T17:13:49.555Z,21.63
2022-10-13T17:16:22.610Z,21.98
2022-10-13T17:18:52.159Z,25.23
2022-10-13T17:21:22.266Z,29.58
2022-10-13T17:23:52.088Z,23.58
2022-10-13T17:26:21.838Z,23.63
2022-10-13T17:28:51.491Z,20.55
2022-10-13T17:31:25.615Z,20.85
2022-10-13T17:36:26.822Z,23.55
2022-10-13T17:38:58.280Z,25.88
2022-10-13T17:41:27.941Z,22.73
2022-10-13T17:43:57.452Z,23.17
2022-10-13T17:46:39.222Z,20.23
2022-10-13T17:49:09.893Z,19.83
2022-10-13T17:51:39.481Z,25.27
2022-10-13T17:54:15.325Z,23.98
2022-10-13T17:56:46.321Z,24.15
2022-10-13T17:59:16.144Z,26.85
2022-10-13T18:01:48.658Z,28.83
2022-10-13T18:04:22.304Z,27.00
2022-10-13T18:06:51.835Z,29.05
2022-10-13T18:09:23.542Z,26.42
2022-10-13T18:11:53.703Z,29.40
2022-10-13T18:14:24.525Z,26.80
2022-10-13T18:16:56.775Z,23.95
2022-10-13T18:19:26.366Z,24.20
2022-10-13T18:21:55.999Z,20.85
2022-10-13T18:24:25.524Z,22.70
2022-10-13T18:26:56.091Z,21.80
2022-10-13T18:29:26.915Z,22.50
2022-10-13T18:31:59.603Z,22.42
2022-10-13T18:34:29.166Z,23.67
2022-10-13T18:36:58.683Z,28.45
2022-10-13T18:39:30.080Z,24.77
2022-10-13T18:42:00.392Z,20.02
2022-10-13T18:44:36.802Z,28.83
2022-10-13T18:47:09.206Z,22.00
2022-10-13T18:49:38.741Z,23.15
2022-10-13T18:52:08.469Z,24.33
2022-10-13T18:54:41.691Z,21.52
2022-10-13T18:57:11.256Z,26.10
2022-10-13T18:59:40.945Z,26.60
2022-10-13T19:02:16.128Z,24.52
2022-10-13T19:04:45.673Z,23.75
2022-10-13T19:07:15.241Z,24.92
2022-10-13T19:09:44.796Z,24.02
2022-10-13T19:12:14.328Z,24.40
2022-10-13T19:14:43.849Z,24.25
2022-10-13T19:17:15.970Z,24.02
2022-10-13T19:19:46.235Z,23.20
2022-10-13T19:22:15.795Z,21.77
2022-10-13T19:24:45.348Z,25.75
2022-10-13T19:27:14.933Z,22.60
2022-10-13T19:29:44.476Z,21.33
2022-10-13T19:32:16.657Z,26.52
2022-10-13T19:34:46.239Z,25.15
2022-10-13T19:37:16.815Z,24.73
2022-10-13T19:39:46.375Z,22.55
2022-10-13T19:42:15.963Z,19.73
2022-10-13T19:44:45.523Z,21.15
2022-10-13T19:47:17.650Z,18.83
2022-10-13T19:49:47.315Z,19.90
2022-10-13T19:52:16.901Z,23.05
2022-10-13T19:54:46.452Z,21.33
2022-10-13T19:57:15.980Z,21.42
2022-10-13T19:59:47.828Z,19.95
2022-10-13T20:02:20.138Z,20.52
2022-10-13T20:04:49.781Z,19.60
2022-10-13T20:07:19.441Z,22.38
2022-10-13T20:09:49.361Z,15.68
2022-10-13T20:12:19.345Z,21.10
2022-10-13T20:14:49.191Z,17.55
2022-10-13T20:17:21.623Z,15.13
2022-10-13T20:19:55.513Z,18.60
2022-10-13T20:22:25.375Z,16.45
2022-10-13T20:24:54.900Z,16.35
2022-10-13T20:27:24.461Z,16.20
2022-10-13T20:29:54.026Z,14.18
2022-10-13T20:32:26.364Z,16.08
2022-10-13T20:34:55.910Z,16.33
2022-10-13T20:37:25.535Z,15.95
2022-10-13T20:39:55.350Z,14.05
2022-10-13T20:42:24.884Z,13.82
2022-10-13T20:44:54.474Z,13.20
2022-10-13T20:47:26.642Z,14.45
2022-10-13T20:49:56.158Z,13.45
2022-10-13T20:52:26.536Z,14.40
2022-10-13T20:54:56.071Z,22.55
2022-10-13T20:57:26.594Z,13.48
2022-10-13T20:59:57.161Z,14.30
2022-10-13T21:02:29.414Z,17.90
2022-10-13T21:04:58.949Z,13.00
2022-10-13T21:07:28.557Z,15.80
2022-10-13T21:09:58.107Z,13.75
2022-10-13T21:12:28.756Z,16.23
2022-10-13T21:14:58.301Z,14.43
2022-10-13T21:17:31.927Z,14.27
2022-10-13T21:20:01.761Z,13.32
2022-10-13T21:22:33.091Z,17.65
2022-10-13T21:25:02.626Z,17.70
2022-10-13T21:27:32.249Z,15.90
2022-10-13T21:30:01.780Z,16.80
2022-10-13T21:32:35.125Z,15.85
2022-10-13T21:35:04.673Z,14.18
2022-10-13T21:37:36.250Z,16.00
2022-10-13T21:40:05.832Z,19.55
2022-10-13T21:42:36.989Z,15.85
2022-10-13T21:45:07.219Z,16.67
2022-10-13T21:47:39.988Z,13.90
2022-10-13T21:50:10.665Z,17.02
2022-10-13T21:52:40.245Z,13.55
2022-10-13T21:55:10.833Z,19.50
2022-10-13T21:57:42.311Z,13.82
2022-10-13T22:00:13.161Z,14.10
2022-10-13T22:02:45.303Z,15.38
2022-10-13T22:05:15.144Z,15.55
2022-10-13T22:07:47.537Z,14.80
2022-10-13T22:10:17.139Z,18.27
2022-10-13T22:12:46.694Z,16.20
2022-10-13T22:15:16.307Z,16.00
2022-10-13T22:17:48.437Z,16.70
2022-10-13T22:20:18.513Z,14.90
2022-10-13T22:22:48.059Z,16.60
2022-10-13T22:25:18.225Z,15.77
2022-10-13T22:27:47.797Z,13.55
2022-10-13T22:30:17.333Z,14.63
2022-10-13T22:32:49.475Z,15.93
2022-10-13T22:35:19.039Z,14.60
2022-10-13T22:37:48.591Z,15.38
2022-10-13T22:40:18.344Z,15.35
2022-10-13T22:42:49.406Z,14.77
2022-10-13T22:45:18.969Z,14.10
2022-10-13T22:47:53.961Z,16.20
2022-10-13T22:50:23.467Z,15.20
2022-10-13T22:52:53.453Z,22.95
2022-10-13T22:55:22.977Z,17.42
2022-10-13T22:57:52.524Z,19.33
2022-10-13T23:00:22.214Z,20.65
2022-10-13T23:02:54.318Z,20.20
2022-10-13T23:05:23.886Z,21.52
2022-10-13T23:07:53.448Z,17.70
2022-10-13T23:10:24.688Z,16.42
2022-10-13T23:12:54.215Z,21.80
2022-10-13T23:15:23.762Z,17.70
2022-10-13T23:17:55.930Z,23.05
2022-10-13T23:20:25.487Z,20.75
2022-10-13T23:22:55.013Z,26.90
2022-10-13T23:25:24.552Z,22.23
2022-10-13T23:27:54.110Z,24.33
2022-10-13T23:30:23.694Z,26.00
2022-10-13T23:32:55.840Z,27.48
2022-10-13T23:35:25.364Z,24.75
2022-10-13T23:37:55.386Z,23.52
2022-10-13T23:40:24.927Z,20.67
2022-10-13T23:42:54.517Z,24.83
2022-10-13T23:45:24.072Z,22.35
2022-10-13T23:47:56.229Z,26.15
2022-10-13T23:50:26.266Z,30.60
2022-10-13T23:52:55.825Z,26.17
2022-10-13T23:55:25.348Z,27.45
2022-10-13T23:57:54.897Z,30.05
